createdAt,value
2017-10-04T00:00:19.585Z,0
2017-10-04T00:01:19.569Z,0
2017-10-04T00:02:19.548Z,0
2017-10-04T00:03:18.896Z,0
2017-10-04T00:04:19.522Z,0
2017-10-04T00:05:19.528Z,0
2017-10-04T00:06:19.501Z,0
2017-10-04T00:07:19.832Z,0
2017-10-04T00:08:19.141Z,0
2017-10-04T00:09:19.480Z,0
2017-10-04T00:10:19.306Z,0
2017-10-04T00:11:19.101Z,0
2017-10-04T00:12:19.398Z,0
2017-10-04T00:13:19.073Z,0
2017-10-04T00:14:19.048Z,0
2017-10-04T00:15:19.359Z,0
2017-10-04T00:16:19.666Z,0
2017-10-04T00:17:19.007Z,0
2017-10-04T00:18:18.991Z,0
2017-10-04T00:19:18.982Z,0
2017-10-04T00:20:18.968Z,0
2017-10-04T00:21:18.952Z,0
2017-10-04T00:22:18.930Z,0
2017-10-04T00:23:18.912Z,0
2017-10-04T00:24:19.229Z,0
2017-10-04T00:25:18.892Z,0
2017-10-04T00:26:19.203Z,0
2017-10-04T00:27:19.494Z,0
2017-10-04T00:28:19.531Z,0
2017-10-04T00:29:19.144Z,0
2017-10-04T00:30:18.809Z,0
2017-10-04T00:31:18.799Z,0
2017-10-04T00:32:18.777Z,0
2017-10-04T00:33:19.086Z,0
2017-10-04T00:34:18.755Z,0
2017-10-04T00:35:19.383Z,0
2017-10-04T00:36:18.733Z,0
2017-10-04T00:37:19.068Z,0
2017-10-04T00:38:19.012Z,0
2017-10-04T00:39:18.352Z,0
2017-10-04T00:40:18.983Z,0
2017-10-04T00:41:18.652Z,0
2017-10-04T00:42:18.958Z,0
2017-10-04T00:43:19.264Z,0
2017-10-04T00:44:18.930Z,0
2017-10-04T00:45:18.907Z,0
2017-10-04T00:46:18.584Z,0
2017-10-04T00:47:18.874Z,0
2017-10-04T00:48:18.584Z,0
2017-10-04T00:49:18.201Z,0
2017-10-04T00:50:17.863Z,0
2017-10-04T00:51:18.494Z,0
2017-10-04T00:52:18.478Z,0
2017-10-04T00:53:18.468Z,0
2017-10-04T00:54:18.130Z,0
2017-10-04T00:55:18.763Z,0
2017-10-04T00:56:18.752Z,0
2017-10-04T00:57:19.056Z,0
2017-10-04T00:58:18.713Z,0
2017-10-04T00:59:18.371Z,0
2017-10-04T01:00:19.006Z,0
2017-10-04T01:01:18.665Z,0
2017-10-04T01:02:18.334Z,0
2017-10-04T01:03:18.689Z,0
2017-10-04T01:04:18.956Z,0
2017-10-04T01:05:18.598Z,0
2017-10-04T01:06:18.274Z,0
2017-10-04T01:07:18.580Z,0
2017-10-04T01:08:18.579Z,0
2017-10-04T01:09:18.236Z,0
2017-10-04T01:10:18.212Z,0
2017-10-04T01:11:18.841Z,0
2017-10-04T01:12:18.500Z,0
2017-10-04T01:13:18.171Z,0
2017-10-04T01:14:18.171Z,0
2017-10-04T01:15:18.454Z,0
2017-10-04T01:16:18.108Z,0
2017-10-04T01:17:18.108Z,0
2017-10-04T01:18:18.085Z,0
2017-10-04T01:19:18.725Z,0
2017-10-04T01:20:18.068Z,0
2017-10-04T01:21:18.039Z,0
2017-10-04T01:22:17.715Z,0
2017-10-04T01:23:17.696Z,0
2017-10-04T01:24:18.052Z,0
2017-10-04T01:25:18.298Z,0
2017-10-04T01:26:17.321Z,0
2017-10-04T01:27:17.945Z,0
2017-10-04T01:28:18.258Z,0
2017-10-04T01:29:17.600Z,0
2017-10-04T01:30:18.553Z,0
2017-10-04T01:31:18.228Z,0
2017-10-04T01:32:17.876Z,0
2017-10-04T01:33:18.494Z,0
2017-10-04T01:34:17.857Z,0
2017-10-04T01:35:17.833Z,0
2017-10-04T01:36:18.137Z,0
2017-10-04T01:37:18.127Z,0
2017-10-04T01:38:17.777Z,0
2017-10-04T01:39:17.775Z,0
2017-10-04T01:40:18.393Z,0
2017-10-04T01:41:17.412Z,0
2017-10-04T01:42:17.404Z,0
2017-10-04T01:43:18.348Z,0
2017-10-04T01:44:18.024Z,0
2017-10-04T01:45:18.010Z,0
2017-10-04T01:46:17.341Z,0
2017-10-04T01:47:17.979Z,0
2017-10-04T01:48:17.629Z,0
2017-10-04T01:49:17.623Z,0
2017-10-04T01:50:17.284Z,0
2017-10-04T01:51:17.602Z,0
2017-10-04T01:52:17.572Z,0
2017-10-04T01:53:17.874Z,0
2017-10-04T01:54:17.862Z,0
2017-10-04T01:55:16.880Z,0
2017-10-04T01:56:17.507Z,0
2017-10-04T01:57:17.496Z,0
2017-10-04T01:58:17.475Z,0
2017-10-04T01:59:17.469Z,0
2017-10-04T02:00:16.807Z,0
2017-10-04T02:01:17.435Z,0
2017-10-04T02:02:18.073Z,0
2017-10-04T02:03:17.408Z,0
2017-10-04T02:04:17.389Z,0
2017-10-04T02:05:18.015Z,0
2017-10-04T02:06:17.699Z,0
2017-10-04T02:07:17.358Z,0
2017-10-04T02:08:17.986Z,0
2017-10-04T02:09:16.989Z,0
2017-10-04T02:10:17.506Z,0
2017-10-04T02:11:17.594Z,0
2017-10-04T02:12:17.279Z,0
2017-10-04T02:13:16.934Z,0
2017-10-04T02:14:17.255Z,0
2017-10-04T02:15:17.861Z,0
2017-10-04T02:16:17.207Z,0
2017-10-04T02:17:17.841Z,0
2017-10-04T02:18:17.497Z,0
2017-10-04T02:19:17.161Z,0
2017-10-04T02:20:17.147Z,0
2017-10-04T02:21:17.443Z,0
2017-10-04T02:22:17.117Z,0
2017-10-04T02:23:17.419Z,0
2017-10-04T02:24:17.399Z,0
2017-10-04T02:25:17.390Z,0
2017-10-04T02:26:17.697Z,0
2017-10-04T02:27:17.061Z,0
2017-10-04T02:28:17.349Z,0
2017-10-04T02:29:17.012Z,0
2017-10-04T02:30:16.394Z,0
2017-10-04T02:31:17.296Z,0
2017-10-04T02:32:17.280Z,0
2017-10-04T02:33:17.262Z,0
2017-10-04T02:34:17.580Z,0
2017-10-04T02:35:17.291Z,0
2017-10-04T02:36:16.906Z,0
2017-10-04T02:37:16.884Z,0
2017-10-04T02:38:16.858Z,0
2017-10-04T02:39:16.532Z,0
2017-10-04T02:40:16.830Z,0
2017-10-04T02:41:17.460Z,0
2017-10-04T02:42:16.484Z,0
2017-10-04T02:43:17.113Z,0
2017-10-04T02:44:17.102Z,0
2017-10-04T02:45:16.757Z,0
2017-10-04T02:46:17.080Z,0
2017-10-04T02:47:17.043Z,0
2017-10-04T02:48:16.713Z,0
2017-10-04T02:49:17.020Z,0
2017-10-04T02:50:16.682Z,0
2017-10-04T02:51:16.682Z,0
2017-10-04T02:52:16.656Z,0
2017-10-04T02:53:15.997Z,0
2017-10-04T02:54:16.943Z,0
2017-10-04T02:55:15.965Z,0
2017-10-04T02:56:16.602Z,0
2017-10-04T02:57:17.225Z,0
2017-10-04T02:58:16.564Z,0
2017-10-04T02:59:16.542Z,0
2017-10-04T03:00:16.846Z,0
2017-10-04T03:01:16.831Z,0
2017-10-04T03:02:16.183Z,0
2017-10-04T03:03:16.806Z,0
2017-10-04T03:04:16.154Z,0
2017-10-04T03:05:16.779Z,0
2017-10-04T03:06:16.432Z,0
2017-10-04T03:07:16.736Z,0
2017-10-04T03:08:16.396Z,0
2017-10-04T03:09:17.024Z,0
2017-10-04T03:10:16.384Z,0
2017-10-04T03:11:16.672Z,0
2017-10-04T03:12:16.659Z,0
2017-10-04T03:13:16.649Z,0
2017-10-04T03:14:16.333Z,0
2017-10-04T03:15:16.663Z,0
2017-10-04T03:16:16.927Z,0
2017-10-04T03:17:16.261Z,0
2017-10-04T03:18:16.244Z,0
2017-10-04T03:19:15.911Z,0
2017-10-04T03:20:16.211Z,0
2017-10-04T03:21:16.194Z,0
2017-10-04T03:22:16.510Z,0
2017-10-04T03:23:16.491Z,0
2017-10-04T03:24:16.468Z,0
2017-10-04T03:25:15.822Z,0
2017-10-04T03:26:15.801Z,0
2017-10-04T03:27:16.103Z,0
2017-10-04T03:28:16.409Z,0
2017-10-04T03:29:16.394Z,0
2017-10-04T03:30:16.382Z,0
2017-10-04T03:31:16.049Z,0
2017-10-04T03:32:15.705Z,0
2017-10-04T03:33:15.699Z,0
2017-10-04T03:34:15.678Z,0
2017-10-04T03:35:15.660Z,0
2017-10-04T03:36:16.280Z,0
2017-10-04T03:37:15.625Z,0
2017-10-04T03:38:16.259Z,0
2017-10-04T03:39:15.271Z,0
2017-10-04T03:40:16.226Z,0
2017-10-04T03:41:15.883Z,0
2017-10-04T03:42:16.188Z,0
2017-10-04T03:43:15.850Z,0
2017-10-04T03:44:15.833Z,0
2017-10-04T03:45:16.153Z,0
2017-10-04T03:46:15.484Z,0
2017-10-04T03:47:16.448Z,0
2017-10-04T03:48:15.454Z,0
2017-10-04T03:49:16.085Z,0
2017-10-04T03:50:15.430Z,0
2017-10-04T03:51:15.405Z,0
2017-10-04T03:52:16.027Z,0
2017-10-04T03:53:15.690Z,0
2017-10-04T03:54:15.689Z,0
2017-10-04T03:55:15.662Z,0
2017-10-04T03:56:15.701Z,0
2017-10-04T03:57:15.954Z,0
2017-10-04T03:58:15.940Z,0
2017-10-04T03:59:14.962Z,0
2017-10-04T04:00:15.592Z,0
2017-10-04T04:01:15.574Z,0
2017-10-04T04:02:15.234Z,0
2017-10-04T04:03:15.862Z,0
2017-10-04T04:04:15.527Z,0
2017-10-04T04:05:15.195Z,0
2017-10-04T04:06:15.830Z,0
2017-10-04T04:07:15.481Z,0
2017-10-04T04:08:15.779Z,0
2017-10-04T04:09:15.446Z,0
2017-10-04T04:10:15.636Z,0
2017-10-04T04:11:15.744Z,0
2017-10-04T04:12:15.400Z,0
2017-10-04T04:13:16.023Z,0
2017-10-04T04:14:16.023Z,0
2017-10-04T04:15:15.355Z,0
2017-10-04T04:16:15.704Z,0
2017-10-04T04:17:15.323Z,0
2017-10-04T04:18:15.005Z,0
2017-10-04T04:19:15.612Z,0
2017-10-04T04:20:15.610Z,0
2017-10-04T04:21:15.264Z,0
2017-10-04T04:22:14.923Z,0
2017-10-04T04:23:15.223Z,0
2017-10-04T04:24:15.533Z,0
2017-10-04T04:25:15.521Z,0
2017-10-04T04:26:15.190Z,0
2017-10-04T04:27:15.824Z,0
2017-10-04T04:28:15.146Z,0
2017-10-04T04:29:14.808Z,0
2017-10-04T04:30:15.453Z,0
2017-10-04T04:31:15.109Z,0
2017-10-04T04:32:15.090Z,0
2017-10-04T04:33:15.403Z,0
2017-10-04T04:34:15.375Z,0
2017-10-04T04:35:14.396Z,0
2017-10-04T04:36:15.338Z,0
2017-10-04T04:37:15.648Z,0
2017-10-04T04:38:14.993Z,0
2017-10-04T04:39:14.974Z,0
2017-10-04T04:40:14.957Z,0
2017-10-04T04:41:14.948Z,0
2017-10-04T04:42:14.935Z,0
2017-10-04T04:43:15.231Z,0
2017-10-04T04:44:15.221Z,0
2017-10-04T04:45:14.885Z,0
2017-10-04T04:46:15.512Z,0
2017-10-04T04:47:14.855Z,0
2017-10-04T04:48:15.163Z,0
2017-10-04T04:49:15.145Z,0
2017-10-04T04:50:15.132Z,0
2017-10-04T04:51:15.114Z,0
2017-10-04T04:52:14.782Z,0
2017-10-04T04:53:14.762Z,0
2017-10-04T04:54:15.376Z,0
2017-10-04T04:55:15.063Z,0
2017-10-04T04:56:15.036Z,0
2017-10-04T04:57:14.694Z,0
2017-10-04T04:58:15.000Z,0
2017-10-04T04:59:14.975Z,0
2017-10-04T05:00:14.323Z,0
2017-10-04T05:01:14.950Z,0
2017-10-04T05:02:14.939Z,0
2017-10-04T05:03:14.279Z,0
2017-10-04T05:04:14.595Z,0
2017-10-04T05:05:14.895Z,0
2017-10-04T05:06:14.878Z,0
2017-10-04T05:07:14.217Z,0
2017-10-04T05:08:14.538Z,0
2017-10-04T05:09:15.147Z,0
2017-10-04T05:10:14.498Z,0
2017-10-04T05:11:14.473Z,0
2017-10-04T05:12:14.461Z,0
2017-10-04T05:13:14.448Z,0
2017-10-04T05:14:14.754Z,0
2017-10-04T05:15:14.103Z,0
2017-10-04T05:16:14.094Z,0
2017-10-04T05:17:14.696Z,0
2017-10-04T05:18:14.695Z,0
2017-10-04T05:19:14.350Z,0
2017-10-04T05:20:14.658Z,0
2017-10-04T05:21:13.999Z,0
2017-10-04T05:22:14.616Z,0
2017-10-04T05:23:14.937Z,0
2017-10-04T05:24:14.277Z,0
2017-10-04T05:25:14.263Z,0
2017-10-04T05:26:13.913Z,0
2017-10-04T05:27:14.235Z,0
2017-10-04T05:28:14.208Z,0
2017-10-04T05:29:14.194Z,0
2017-10-04T05:30:14.188Z,0
2017-10-04T05:31:14.155Z,0
2017-10-04T05:32:14.147Z,0
2017-10-04T05:33:14.441Z,0
2017-10-04T05:34:14.130Z,0
2017-10-04T05:35:14.421Z,0
2017-10-04T05:36:14.083Z,0
2017-10-04T05:37:13.746Z,0
2017-10-04T05:38:13.405Z,0
2017-10-04T05:39:14.032Z,0
2017-10-04T05:40:14.340Z,0
2017-10-04T05:41:14.343Z,0
2017-10-04T05:42:13.989Z,0
2017-10-04T05:43:13.651Z,5
2017-10-04T05:44:14.270Z,5
2017-10-04T05:45:13.947Z,5
2017-10-04T05:46:14.258Z,5
2017-10-04T05:47:14.231Z,5
2017-10-04T05:48:14.212Z,5
2017-10-04T05:49:14.528Z,5
2017-10-04T05:50:13.540Z,5
2017-10-04T05:51:13.208Z,5
2017-10-04T05:52:13.861Z,5
2017-10-04T05:53:13.811Z,5
2017-10-04T05:54:14.442Z,5
2017-10-04T05:55:13.781Z,5
2017-10-04T05:56:14.092Z,5
2017-10-04T05:57:13.433Z,5
2017-10-04T05:58:13.747Z,5
2017-10-04T05:59:14.038Z,10
2017-10-04T06:00:13.390Z,10
2017-10-04T06:01:14.007Z,10
2017-10-04T06:02:13.988Z,10
2017-10-04T06:03:13.669Z,10
2017-10-04T06:04:14.293Z,10
2017-10-04T06:05:13.317Z,10
2017-10-04T06:06:13.290Z,10
2017-10-04T06:07:13.274Z,15
2017-10-04T06:08:13.906Z,15
2017-10-04T06:09:13.570Z,15
2017-10-04T06:10:14.076Z,15
2017-10-04T06:11:13.536Z,20
2017-10-04T06:12:13.524Z,20
2017-10-04T06:13:13.187Z,20
2017-10-04T06:14:13.503Z,20
2017-10-04T06:15:13.796Z,20
2017-10-04T06:16:13.775Z,25
2017-10-04T06:17:13.124Z,25
2017-10-04T06:18:13.434Z,30
2017-10-04T06:19:13.409Z,35
2017-10-04T06:20:13.063Z,35
2017-10-04T06:21:13.692Z,40
2017-10-04T06:22:13.677Z,40
2017-10-04T06:23:13.023Z,45
2017-10-04T06:24:13.329Z,40
2017-10-04T06:25:12.990Z,40
2017-10-04T06:26:13.294Z,40
2017-10-04T06:27:13.922Z,40
2017-10-04T06:28:13.913Z,40
2017-10-04T06:29:13.567Z,45
2017-10-04T06:30:13.238Z,50
2017-10-04T06:31:13.234Z,55
2017-10-04T06:32:13.213Z,55
2017-10-04T06:33:13.507Z,55
2017-10-04T06:34:12.847Z,60
2017-10-04T06:35:13.160Z,60
2017-10-04T06:36:13.461Z,65
2017-10-04T06:37:13.128Z,60
2017-10-04T06:38:13.122Z,65
2017-10-04T06:39:13.113Z,60
2017-10-04T06:40:13.086Z,55
2017-10-04T06:41:13.388Z,55
2017-10-04T06:42:13.048Z,55
2017-10-04T06:43:13.040Z,55
2017-10-04T06:44:13.333Z,60
2017-10-04T06:45:13.006Z,60
2017-10-04T06:46:12.998Z,60
2017-10-04T06:47:13.288Z,60
2017-10-04T06:48:13.276Z,65
2017-10-04T06:49:12.617Z,65
2017-10-04T06:50:12.917Z,70
2017-10-04T06:51:12.909Z,70
2017-10-04T06:52:13.243Z,70
2017-10-04T06:53:12.916Z,70
2017-10-04T06:54:13.192Z,65
2017-10-04T06:55:12.850Z,60
2017-10-04T06:56:12.520Z,60
2017-10-04T06:57:13.153Z,65
2017-10-04T06:58:13.157Z,65
2017-10-04T06:59:12.786Z,65
2017-10-04T07:00:12.444Z,65
2017-10-04T07:01:13.396Z,65
2017-10-04T07:02:13.052Z,70
2017-10-04T07:03:13.044Z,70
2017-10-04T07:04:13.238Z,70
2017-10-04T07:05:13.006Z,70
2017-10-04T07:06:13.325Z,70
2017-10-04T07:07:12.666Z,70
2017-10-04T07:08:12.972Z,70
2017-10-04T07:09:12.951Z,75
2017-10-04T07:10:12.303Z,75
2017-10-04T07:11:12.598Z,80
2017-10-04T07:12:12.909Z,85
2017-10-04T07:13:13.214Z,90
2017-10-04T07:14:12.924Z,95
2017-10-04T07:15:12.542Z,95
2017-10-04T07:16:12.534Z,95
2017-10-04T07:17:12.507Z,100
2017-10-04T07:18:12.499Z,100
2017-10-04T07:19:12.469Z,100
2017-10-04T07:20:11.826Z,105
2017-10-04T07:21:12.770Z,105
2017-10-04T07:22:12.432Z,95
2017-10-04T07:23:12.742Z,95
2017-10-04T07:24:12.079Z,90
2017-10-04T07:25:12.064Z,85
2017-10-04T07:26:12.695Z,85
2017-10-04T07:27:12.363Z,80
2017-10-04T07:28:12.349Z,75
2017-10-04T07:29:12.651Z,75
2017-10-04T07:30:12.316Z,80
2017-10-04T07:31:11.975Z,85
2017-10-04T07:32:12.288Z,95
2017-10-04T07:33:11.628Z,100
2017-10-04T07:34:12.253Z,110
2017-10-04T07:35:11.914Z,115
2017-10-04T07:36:12.226Z,125
2017-10-04T07:37:12.843Z,135
2017-10-04T07:38:12.186Z,140
2017-10-04T07:39:12.174Z,150
2017-10-04T07:40:12.169Z,155
2017-10-04T07:41:12.790Z,155
2017-10-04T07:42:12.132Z,150
2017-10-04T07:43:12.130Z,145
2017-10-04T07:44:12.743Z,140
2017-10-04T07:45:12.094Z,140
2017-10-04T07:46:12.071Z,140
2017-10-04T07:47:12.075Z,140
2017-10-04T07:48:12.370Z,140
2017-10-04T07:49:12.024Z,145
2017-10-04T07:50:12.333Z,150
2017-10-04T07:51:12.327Z,150
2017-10-04T07:52:12.306Z,150
2017-10-04T07:53:11.974Z,145
2017-10-04T07:54:12.279Z,140
2017-10-04T07:55:11.306Z,135
2017-10-04T07:56:12.271Z,130
2017-10-04T07:57:11.594Z,130
2017-10-04T07:58:11.905Z,130
2017-10-04T07:59:12.256Z,125
2017-10-04T08:00:11.877Z,125
2017-10-04T08:01:11.855Z,120
2017-10-04T08:02:12.190Z,125
2017-10-04T08:03:12.463Z,130
2017-10-04T08:04:11.825Z,140
2017-10-04T08:05:11.482Z,150
2017-10-04T08:06:11.796Z,150
2017-10-04T08:07:11.781Z,145
2017-10-04T08:08:12.074Z,140
2017-10-04T08:09:12.061Z,135
2017-10-04T08:10:11.921Z,130
2017-10-04T08:11:12.345Z,125
2017-10-04T08:12:12.022Z,130
2017-10-04T08:13:11.690Z,130
2017-10-04T08:14:11.678Z,130
2017-10-04T08:15:11.650Z,130
2017-10-04T08:16:11.636Z,125
2017-10-04T08:17:12.267Z,125
2017-10-04T08:18:11.308Z,125
2017-10-04T08:19:12.250Z,125
2017-10-04T08:20:12.226Z,125
2017-10-04T08:21:11.574Z,125
2017-10-04T08:22:11.877Z,125
2017-10-04T08:23:11.223Z,130
2017-10-04T08:24:11.530Z,130
2017-10-04T08:25:11.525Z,130
2017-10-04T08:26:11.497Z,140
2017-10-04T08:27:11.808Z,145
2017-10-04T08:28:11.155Z,150
2017-10-04T08:29:11.773Z,150
2017-10-04T08:30:11.760Z,145
2017-10-04T08:31:11.425Z,140
2017-10-04T08:32:11.417Z,135
2017-10-04T08:33:11.394Z,130
2017-10-04T08:34:11.393Z,125
2017-10-04T08:35:11.060Z,115
2017-10-04T08:36:11.369Z,105
2017-10-04T08:37:11.344Z,95
2017-10-04T08:38:11.327Z,95
2017-10-04T08:39:11.004Z,95
2017-10-04T08:40:11.943Z,95
2017-10-04T08:41:11.624Z,100
2017-10-04T08:42:11.599Z,100
2017-10-04T08:43:11.584Z,95
2017-10-04T08:44:10.924Z,90
2017-10-04T08:45:10.911Z,95
2017-10-04T08:46:11.268Z,95
2017-10-04T08:47:11.558Z,105
2017-10-04T08:48:10.868Z,115
2017-10-04T08:49:11.829Z,135
2017-10-04T08:50:11.485Z,160
2017-10-04T08:51:10.821Z,140
2017-10-04T08:52:11.453Z,135
2017-10-04T08:53:11.434Z,115
2017-10-04T08:54:11.741Z,110
2017-10-04T08:55:11.417Z,95
2017-10-04T08:56:11.399Z,145
2017-10-04T08:57:11.385Z,175
2017-10-04T08:58:11.054Z,175
2017-10-04T08:59:11.030Z,175
2017-10-04T09:00:11.348Z,165
2017-10-04T09:01:11.016Z,170
2017-10-04T09:02:11.631Z,195
2017-10-04T09:03:11.289Z,215
2017-10-04T09:04:10.960Z,215
2017-10-04T09:05:10.942Z,210
2017-10-04T09:06:11.260Z,205
2017-10-04T09:07:11.560Z,225
2017-10-04T09:08:10.594Z,195
2017-10-04T09:09:11.218Z,150
2017-10-04T09:10:10.567Z,175
2017-10-04T09:11:10.859Z,210
2017-10-04T09:12:11.177Z,215
2017-10-04T09:13:11.483Z,215
2017-10-04T09:14:10.505Z,225
2017-10-04T09:15:10.811Z,265
2017-10-04T09:16:10.157Z,330
2017-10-04T09:17:10.790Z,365
2017-10-04T09:18:10.773Z,320
2017-10-04T09:19:11.403Z,305
2017-10-04T09:20:10.749Z,310
2017-10-04T09:21:10.743Z,290
2017-10-04T09:22:11.046Z,280
2017-10-04T09:23:11.027Z,275
2017-10-04T09:24:11.015Z,275
2017-10-04T09:25:10.996Z,255
2017-10-04T09:26:10.672Z,245
2017-10-04T09:27:10.970Z,205
2017-10-04T09:28:10.959Z,150
2017-10-04T09:29:10.952Z,105
2017-10-04T09:30:10.938Z,90
2017-10-04T09:31:10.924Z,110
2017-10-04T09:32:10.939Z,110
2017-10-04T09:33:10.905Z,105
2017-10-04T09:34:10.246Z,135
2017-10-04T09:35:10.552Z,185
2017-10-04T09:36:10.546Z,180
2017-10-04T09:37:10.527Z,175
2017-10-04T09:38:10.200Z,150
2017-10-04T09:39:10.819Z,125
2017-10-04T09:40:10.805Z,125
2017-10-04T09:41:10.475Z,80
2017-10-04T09:42:10.471Z,80
2017-10-04T09:43:10.789Z,115
2017-10-04T09:44:11.081Z,120
2017-10-04T09:45:11.066Z,90
2017-10-04T09:46:10.410Z,85
2017-10-04T09:47:10.389Z,95
2017-10-04T09:48:10.707Z,105
2017-10-04T09:49:11.016Z,85
2017-10-04T09:50:10.355Z,75
2017-10-04T09:51:10.671Z,70
2017-10-04T09:52:10.981Z,95
2017-10-04T09:53:10.959Z,105
2017-10-04T09:54:10.629Z,95
2017-10-04T09:55:10.947Z,100
2017-10-04T09:56:09.957Z,80
2017-10-04T09:57:10.295Z,65
2017-10-04T09:58:10.244Z,60
2017-10-04T09:59:10.556Z,40
2017-10-04T10:00:10.223Z,45
2017-10-04T10:01:10.534Z,55
2017-10-04T10:02:10.194Z,65
2017-10-04T10:03:10.179Z,50
2017-10-04T10:04:09.855Z,35
2017-10-04T10:05:10.471Z,35
2017-10-04T10:06:09.501Z,50
2017-10-04T10:07:10.121Z,50
2017-10-04T10:08:10.430Z,65
2017-10-04T10:09:10.737Z,55
2017-10-04T10:10:10.480Z,40
2017-10-04T10:11:10.719Z,50
2017-10-04T10:12:10.904Z,70
2017-10-04T10:13:10.368Z,120
2017-10-04T10:14:10.031Z,175
2017-10-04T10:15:09.696Z,185
2017-10-04T10:16:10.320Z,180
2017-10-04T10:17:10.307Z,145
2017-10-04T10:18:10.114Z,115
2017-10-04T10:19:09.647Z,95
2017-10-04T10:20:10.591Z,90
2017-10-04T10:21:10.250Z,100
2017-10-04T10:22:10.559Z,120
2017-10-04T10:23:10.555Z,145
2017-10-04T10:24:09.571Z,160
2017-10-04T10:25:09.232Z,170
2017-10-04T10:26:10.203Z,190
2017-10-04T10:27:09.528Z,210
2017-10-04T10:28:09.530Z,220
2017-10-04T10:29:10.146Z,220
2017-10-04T10:30:09.807Z,220
2017-10-04T10:31:09.794Z,225
2017-10-04T10:32:09.790Z,225
2017-10-04T10:33:09.442Z,230
2017-10-04T10:34:09.113Z,230
2017-10-04T10:35:09.747Z,220
2017-10-04T10:36:10.048Z,235
2017-10-04T10:37:10.058Z,270
2017-10-04T10:38:09.063Z,295
2017-10-04T10:39:10.017Z,275
2017-10-04T10:40:09.690Z,265
2017-10-04T10:41:09.657Z,260
2017-10-04T10:42:10.299Z,265
2017-10-04T10:43:09.317Z,265
2017-10-04T10:44:09.653Z,265
2017-10-04T10:45:09.618Z,265
2017-10-04T10:46:10.244Z,280
2017-10-04T10:47:09.269Z,295
2017-10-04T10:48:09.249Z,310
2017-10-04T10:49:09.876Z,305
2017-10-04T10:50:09.872Z,330
2017-10-04T10:51:09.555Z,325
2017-10-04T10:52:09.843Z,300
2017-10-04T10:53:09.522Z,300
2017-10-04T10:54:09.498Z,295
2017-10-04T10:55:09.491Z,255
2017-10-04T10:56:09.796Z,225
2017-10-04T10:57:09.778Z,240
2017-10-04T10:58:08.810Z,285
2017-10-04T10:59:09.116Z,300
2017-10-04T11:00:09.432Z,330
2017-10-04T11:01:10.061Z,305
2017-10-04T11:02:09.399Z,305
2017-10-04T11:03:09.397Z,290
2017-10-04T11:04:10.031Z,275
2017-10-04T11:05:09.043Z,160
2017-10-04T11:06:09.037Z,115
2017-10-04T11:07:09.655Z,85
2017-10-04T11:08:09.977Z,100
2017-10-04T11:09:09.647Z,90
2017-10-04T11:10:08.983Z,135
2017-10-04T11:11:08.968Z,135
2017-10-04T11:12:08.969Z,90
2017-10-04T11:13:09.271Z,95
2017-10-04T11:14:08.613Z,140
2017-10-04T11:15:08.922Z,185
2017-10-04T11:16:09.235Z,100
2017-10-04T11:17:09.222Z,65
2017-10-04T11:18:09.524Z,70
2017-10-04T11:19:09.519Z,95
2017-10-04T11:20:09.509Z,185
2017-10-04T11:21:09.484Z,305
2017-10-04T11:22:09.155Z,260
2017-10-04T11:23:09.152Z,180
2017-10-04T11:24:08.820Z,105
2017-10-04T11:25:09.120Z,80
2017-10-04T11:26:08.782Z,95
2017-10-04T11:27:08.763Z,110
2017-10-04T11:28:09.730Z,110
2017-10-04T11:29:09.708Z,130
2017-10-04T11:30:08.735Z,170
2017-10-04T11:31:09.054Z,245
2017-10-04T11:32:09.360Z,420
2017-10-04T11:33:09.017Z,375
2017-10-04T11:34:09.010Z,300
2017-10-04T11:35:08.680Z,210
2017-10-04T11:36:09.311Z,155
2017-10-04T11:37:08.979Z,180
2017-10-04T11:38:08.953Z,200
2017-10-04T11:39:09.263Z,255
2017-10-04T11:40:08.602Z,235
2017-10-04T11:41:09.243Z,170
2017-10-04T11:42:08.914Z,180
2017-10-04T11:43:08.889Z,240
2017-10-04T11:44:08.554Z,405
2017-10-04T11:45:08.863Z,480
2017-10-04T11:46:09.188Z,490
2017-10-04T11:47:08.847Z,395
2017-10-04T11:48:09.156Z,260
2017-10-04T11:49:08.509Z,215
2017-10-04T11:50:08.815Z,225
2017-10-04T11:51:08.799Z,175
2017-10-04T11:52:09.096Z,150
2017-10-04T11:53:08.774Z,185
2017-10-04T11:54:09.100Z,245
2017-10-04T11:55:09.063Z,250
2017-10-04T11:56:08.738Z,205
2017-10-04T11:57:08.721Z,180
2017-10-04T11:58:09.033Z,140
2017-10-04T11:59:09.025Z,130
2017-10-04T12:00:08.688Z,180
2017-10-04T12:01:08.350Z,295
2017-10-04T12:02:08.354Z,305
2017-10-04T12:03:08.973Z,355
2017-10-04T12:04:08.632Z,340
2017-10-04T12:05:08.631Z,340
2017-10-04T12:06:08.945Z,280
2017-10-04T12:07:08.609Z,215
2017-10-04T12:08:08.593Z,245
2017-10-04T12:09:08.898Z,225
2017-10-04T12:10:08.775Z,190
2017-10-04T12:11:08.879Z,165
2017-10-04T12:12:08.871Z,235
2017-10-04T12:13:08.531Z,355
2017-10-04T12:14:08.864Z,360
2017-10-04T12:15:09.159Z,240
2017-10-04T12:16:08.495Z,180
2017-10-04T12:17:08.807Z,200
2017-10-04T12:18:08.479Z,235
2017-10-04T12:19:09.183Z,215
2017-10-04T12:20:08.456Z,170
2017-10-04T12:21:08.441Z,120
2017-10-04T12:22:09.086Z,105
2017-10-04T12:23:08.426Z,100
2017-10-04T12:24:08.082Z,120
2017-10-04T12:25:08.393Z,115
2017-10-04T12:26:07.749Z,155
2017-10-04T12:27:08.053Z,245
2017-10-04T12:28:08.677Z,310
2017-10-04T12:29:08.353Z,315
2017-10-04T12:30:08.654Z,265
2017-10-04T12:31:08.014Z,270
2017-10-04T12:32:08.320Z,220
2017-10-04T12:33:07.989Z,150
2017-10-04T12:34:07.972Z,145
2017-10-04T12:35:08.291Z,150
2017-10-04T12:36:08.265Z,155
2017-10-04T12:37:08.247Z,155
2017-10-04T12:38:07.913Z,145
2017-10-04T12:39:07.903Z,135
2017-10-04T12:40:07.897Z,130
2017-10-04T12:41:07.892Z,125
2017-10-04T12:42:08.508Z,130
2017-10-04T12:43:07.862Z,145
2017-10-04T12:44:08.173Z,135
2017-10-04T12:45:07.836Z,110
2017-10-04T12:46:08.793Z,110
2017-10-04T12:47:08.471Z,140
2017-10-04T12:48:08.120Z,140
2017-10-04T12:49:08.440Z,135
2017-10-04T12:50:08.414Z,140
2017-10-04T12:51:07.766Z,125
2017-10-04T12:52:08.070Z,120
2017-10-04T12:53:08.701Z,115
2017-10-04T12:54:08.050Z,110
2017-10-04T12:55:08.684Z,110
2017-10-04T12:56:08.028Z,105
2017-10-04T12:57:08.016Z,135
2017-10-04T12:58:08.647Z,170
2017-10-04T12:59:08.306Z,180
2017-10-04T13:00:07.651Z,165
2017-10-04T13:01:08.300Z,140
2017-10-04T13:02:08.583Z,120
2017-10-04T13:03:07.932Z,110
2017-10-04T13:04:07.928Z,140
2017-10-04T13:05:08.237Z,150
2017-10-04T13:06:08.229Z,185
2017-10-04T13:07:07.879Z,300
2017-10-04T13:08:08.218Z,315
2017-10-04T13:09:08.509Z,230
2017-10-04T13:10:08.499Z,245
2017-10-04T13:11:07.194Z,240
2017-10-04T13:12:07.505Z,185
2017-10-04T13:13:07.492Z,170
2017-10-04T13:14:07.806Z,145
2017-10-04T13:15:07.779Z,150
2017-10-04T13:16:08.091Z,165
2017-10-04T13:17:07.755Z,150
2017-10-04T13:18:07.748Z,145
2017-10-04T13:19:07.739Z,140
2017-10-04T13:20:07.405Z,120
2017-10-04T13:21:08.353Z,130
2017-10-04T13:22:07.693Z,115
2017-10-04T13:23:07.682Z,105
2017-10-04T13:24:07.998Z,100
2017-10-04T13:25:07.975Z,95
2017-10-04T13:26:07.962Z,95
2017-10-04T13:27:07.956Z,95
2017-10-04T13:28:07.623Z,105
2017-10-04T13:29:07.609Z,135
2017-10-04T13:30:07.613Z,155
2017-10-04T13:31:07.918Z,145
2017-10-04T13:32:07.252Z,135
2017-10-04T13:33:07.558Z,130
2017-10-04T13:34:07.882Z,135
2017-10-04T13:35:07.531Z,135
2017-10-04T13:36:07.201Z,145
2017-10-04T13:37:07.505Z,145
2017-10-04T13:38:07.830Z,150
2017-10-04T13:39:07.161Z,145
2017-10-04T13:40:07.472Z,135
2017-10-04T13:41:06.815Z,140
2017-10-04T13:42:07.454Z,140
2017-10-04T13:43:07.113Z,140
2017-10-04T13:44:07.735Z,140
2017-10-04T13:45:07.094Z,150
2017-10-04T13:46:08.039Z,145
2017-10-04T13:47:07.380Z,140
2017-10-04T13:48:07.363Z,140
2017-10-04T13:49:07.350Z,120
2017-10-04T13:50:07.667Z,105
2017-10-04T13:51:06.999Z,100
2017-10-04T13:52:06.666Z,85
2017-10-04T13:53:07.633Z,100
2017-10-04T13:54:06.970Z,125
2017-10-04T13:55:07.609Z,130
2017-10-04T13:56:07.909Z,115
2017-10-04T13:57:07.893Z,100
2017-10-04T13:58:07.552Z,90
2017-10-04T13:59:07.222Z,80
2017-10-04T14:00:07.529Z,70
2017-10-04T14:01:07.512Z,75
2017-10-04T14:02:07.182Z,85
2017-10-04T14:03:07.176Z,85
2017-10-04T14:04:07.482Z,75
2017-10-04T14:05:07.146Z,60
2017-10-04T14:06:07.448Z,65
2017-10-04T14:07:07.428Z,75
2017-10-04T14:08:07.423Z,70
2017-10-04T14:09:07.089Z,75
2017-10-04T14:10:07.710Z,80
2017-10-04T14:11:07.581Z,85
2017-10-04T14:12:07.384Z,85
2017-10-04T14:13:07.029Z,85
2017-10-04T14:14:07.349Z,95
2017-10-04T14:15:07.343Z,95
2017-10-04T14:16:06.995Z,85